Time;durP1;ratioP1;P1;durP2;ratioP2;P2;SDS_P1;SDS_P2;PMS_P1;PMS_P2;Temp;Humidity;BMP_temperature;BMP_pressure;BME280_temperature;BME280_humidity;BME280_pressure;Samples;Min_cycle;Max_cycle;Signal;HPM_P1;HPM_P2
2022/04/01 00:02:01;;;;;;;4.18;3.45;;;2.90;83.40;;;;;;5008741;28;20046;-60
2022/04/01 00:04:26;;;;;;;4.07;3.08;;;2.90;83.50;;;;;;5006859;28;20022;-60
2022/04/01 00:06:52;;;;;;;3.65;3.15;;;2.90;83.40;;;;;;5008158;28;20029;-59
2022/04/01 00:09:18;;;;;;;3.55;3.25;;;2.90;83.50;;;;;;5007388;28;20383;-60
2022/04/01 00:11:43;;;;;;;5.82;3.00;;;2.90;83.60;;;;;;5018183;28;20347;-60
2022/04/01 00:14:09;;;;;;;5.10;3.08;;;2.80;83.60;;;;;;5012505;28;20034;-63
2022/04/01 00:16:35;;;;;;;4.53;3.20;;;2.80;83.70;;;;;;5010645;28;20030;-63
2022/04/01 00:19:01;;;;;;;3.47;2.90;;;2.80;83.80;;;;;;5011235;28;20034;-63
2022/04/01 00:21:26;;;;;;;3.78;3.03;;;2.70;83.80;;;;;;5011979;28;20060;-63
2022/04/01 00:23:52;;;;;;;4.97;3.10;;;2.70;83.90;;;;;;5011546;28;20054;-63
2022/04/01 00:26:18;;;;;;;3.75;3.17;;;2.80;83.90;;;;;;5010765;28;20420;-64
2022/04/01 00:28:43;;;;;;;5.10;2.95;;;2.80;84.50;;;;;;5011388;28;20041;-63
2022/04/01 00:31:09;;;;;;;4.82;3.00;;;2.70;84.00;;;;;;5009261;28;20034;-63
2022/04/01 00:33:35;;;;;;;2.88;2.58;;;2.70;84.00;;;;;;5011929;28;20042;-64
2022/04/01 00:36:01;;;;;;;3.92;3.30;;;2.70;84.00;;;;;;5011869;28;20022;-64
2022/04/01 00:38:27;;;;;;;3.78;3.10;;;2.70;84.00;;;;;;5010839;28;20045;-64
2022/04/01 00:40:53;;;;;;;4.07;3.15;;;2.80;84.00;;;;;;5010773;28;20036;-60
2022/04/01 00:43:30;;;;;;;3.70;3.22;;;2.70;84.00;;;;;;5011720;28;20388;-60
2022/04/01 00:45:57;;;;;;;5.00;3.47;;;2.80;84.10;;;;;;5011439;28;20391;-60
2022/04/01 00:48:23;;;;;;;4.10;3.45;;;2.80;84.00;;;;;;5010998;28;20042;-60
2022/04/01 00:50:50;;;;;;;3.75;3.35;;;2.70;83.90;;;;;;5006768;28;20045;-60
2022/04/01 00:53:18;;;;;;;3.60;3.10;;;2.70;84.00;;;;;;5011420;28;20026;-60
2022/04/01 00:55:46;;;;;;;3.50;2.97;;;2.70;84.20;;;;;;5011499;28;20101;-61
2022/04/01 00:58:11;;;;;;;3.30;3.00;;;2.60;84.20;;;;;;5011051;28;20030;-60
2022/04/01 01:00:37;;;;;;;4.22;3.40;;;2.60;84.10;;;;;;5010082;28;20527;-60
2022/04/01 01:03:07;;;;;;;4.60;3.80;;;2.60;84.20;;;;;;5011483;28;20022;-60
2022/04/01 01:05:33;;;;;;;3.45;3.15;;;2.60;84.30;;;;;;5009505;28;20017;-61
2022/04/01 01:08:00;;;;;;;3.80;3.40;;;2.60;84.30;;;;;;5011057;28;20105;-60
2022/04/01 01:10:26;;;;;;;4.93;4.20;;;2.60;84.30;;;;;;5009760;28;20033;-60
2022/04/01 01:12:52;;;;;;;4.07;3.58;;;2.60;84.40;;;;;;5010797;28;20478;-61
2022/04/01 01:15:18;;;;;;;4.97;4.25;;;2.60;84.40;;;;;;5008317;28;20030;-64
2022/04/01 01:17:45;;;;;;;4.93;4.20;;;2.60;84.40;;;;;;5010447;28;20104;-64
2022/04/01 01:20:14;;;;;;;5.10;4.60;;;2.60;84.30;;;;;;5008553;28;20375;-64
2022/04/01 01:22:41;;;;;;;6.57;4.40;;;2.60;84.30;;;;;;5010331;28;20556;-60
2022/04/01 01:25:08;;;;;;;5.00;4.35;;;2.60;84.20;;;;;;5010114;28;20060;-61
2022/04/01 01:27:34;;;;;;;4.53;4.10;;;2.60;84.30;;;;;;5010725;28;20129;-60
2022/04/01 01:30:02;;;;;;;4.70;4.20;;;2.60;84.20;;;;;;5010485;28;20041;-59
2022/04/01 01:32:29;;;;;;;5.25;3.97;;;2.60;84.20;;;;;;5008145;28;20092;-59
2022/04/01 01:34:56;;;;;;;4.70;4.07;;;2.60;84.30;;;;;;5010539;28;20119;-59
2022/04/01 01:37:22;;;;;;;4.20;3.65;;;2.60;84.40;;;;;;5008850;28;20018;-63
2022/04/01 01:39:49;;;;;;;3.85;3.53;;;2.60;84.40;;;;;;5009834;28;20030;-63
2022/04/01 01:42:15;;;;;;;5.35;3.67;;;2.50;84.30;;;;;;5010541;28;20122;-63
2022/04/01 01:44:41;;;;;;;5.88;3.60;;;2.50;84.40;;;;;;5010153;28;20026;-63
2022/04/01 01:47:08;;;;;;;4.90;3.70;;;2.50;84.60;;;;;;5009690;28;20038;-63
2022/04/01 01:49:34;;;;;;;4.25;3.53;;;2.50;84.60;;;;;;5010049;28;20038;-58
2022/04/01 01:54:46;;;;;;;4.47;3.70;;;2.50;84.70;;;;;;5011579;28;20093;-60
2022/04/01 01:57:23;;;;;;;4.00;3.47;;;2.50;84.70;;;;;;5005452;28;20038;-60
2022/04/01 01:59:50;;;;;;;4.40;2.92;;;2.40;84.60;;;;;;5008085;28;20070;-60
2022/04/01 02:02:17;;;;;;;3.67;3.20;;;2.40;84.70;;;;;;5023782;28;20042;-61
2022/04/01 02:04:43;;;;;;;4.05;3.17;;;2.40;84.70;;;;;;5009682;28;20018;-61
2022/04/01 02:07:10;;;;;;;4.10;3.42;;;2.40;84.80;;;;;;5009249;28;20042;-59
2022/04/01 02:09:37;;;;;;;3.90;3.50;;;2.30;84.70;;;;;;5007716;28;20032;-63
2022/04/01 02:12:04;;;;;;;4.22;3.50;;;2.40;84.80;;;;;;5010645;28;20034;-63
2022/04/01 02:14:30;;;;;;;3.55;3.17;;;2.40;84.90;;;;;;5009187;28;20049;-63
2022/04/01 02:16:57;;;;;;;3.67;2.90;;;2.40;84.80;;;;;;5009692;28;20070;-63
2022/04/01 02:19:23;;;;;;;4.30;3.67;;;2.40;84.90;;;;;;5039987;28;20029;-59
2022/04/01 02:21:53;;;;;;;4.13;3.28;;;2.40;84.90;;;;;;5014428;28;20033;-59
2022/04/01 02:24:24;;;;;;;3.70;3.30;;;2.40;84.90;;;;;;5009050;28;20470;-59
2022/04/01 02:26:50;;;;;;;4.15;3.38;;;2.40;84.80;;;;;;5009458;28;20048;-63
2022/04/01 02:29:19;;;;;;;3.05;2.75;;;2.40;84.70;;;;;;5009026;28;20034;-63
2022/04/01 02:31:45;;;;;;;4.00;3.60;;;2.40;84.70;;;;;;5010115;28;20103;-62
2022/04/01 02:34:12;;;;;;;4.20;3.40;;;2.40;84.70;;;;;;5008970;28;20473;-62
2022/04/01 02:36:38;;;;;;;4.03;3.22;;;2.30;84.60;;;;;;5007366;28;20037;-62
2022/04/01 02:39:05;;;;;;;4.32;3.20;;;2.30;84.60;;;;;;5008652;28;20429;-58
2022/04/01 02:41:32;;;;;;;3.40;3.10;;;2.30;84.60;;;;;;5008112;28;20412;-62
2022/04/01 02:44:12;;;;;;;3.83;3.50;;;2.30;84.70;;;;;;5008996;28;20026;-63
2022/04/01 02:46:43;;;;;;;6.07;3.40;;;2.30;84.70;;;;;;5009434;28;20113;-63
2022/04/01 02:49:11;;;;;;;4.22;3.80;;;2.40;84.70;;;;;;5009592;28;20125;-60
2022/04/01 02:51:39;;;;;;;4.38;3.55;;;2.40;84.60;;;;;;5008063;28;20022;-60
2022/04/01 02:54:06;;;;;;;4.47;3.85;;;2.40;84.60;;;;;;5007680;28;20042;-59
2022/04/01 02:56:33;;;;;;;3.78;3.10;;;2.40;84.50;;;;;;5008747;28;20025;-59
2022/04/01 02:59:06;;;;;;;4.18;3.50;;;2.40;84.50;;;;;;5007979;28;20274;-63
2022/04/01 03:01:33;;;;;;;4.40;3.15;;;2.40;84.50;;;;;;5008518;28;20030;-59
2022/04/01 03:03:59;;;;;;;4.15;3.45;;;2.40;84.50;;;;;;5007386;28;20107;-58
2022/04/01 03:06:25;;;;;;;4.28;3.47;;;2.40;84.40;;;;;;5007814;28;20034;-59
2022/04/01 03:08:51;;;;;;;4.20;3.53;;;2.40;84.30;;;;;;5007084;28;20057;-59
2022/04/01 03:11:17;;;;;;;5.20;3.65;;;2.40;84.30;;;;;;5009340;28;20034;-59
2022/04/01 03:13:43;;;;;;;5.50;3.45;;;2.40;84.30;;;;;;5008491;28;20033;-60
2022/04/01 03:16:09;;;;;;;4.35;3.45;;;2.40;84.20;;;;;;5008801;28;20030;-62
2022/04/01 03:18:40;;;;;;;4.13;3.63;;;2.40;84.10;;;;;;5008651;28;20045;-63
2022/04/01 03:21:12;;;;;;;6.15;4.47;;;2.40;84.10;;;;;;5027877;28;20080;-63
2022/04/01 03:23:39;;;;;;;;;;;2.40;84.20;;;;;;5008980;28;20107;-63
2022/04/01 03:26:04;;;;;;;3.50;3.20;;;2.40;84.10;;;;;;5012000;28;19917;-63
2022/04/01 03:28:30;;;;;;;4.90;3.97;;;2.30;84.10;;;;;;5024067;28;20046;-60
2022/04/01 03:30:57;;;;;;;4.85;3.80;;;2.30;84.10;;;;;;5007812;28;20045;-60
2022/04/01 03:33:23;;;;;;;6.85;4.30;;;2.30;84.20;;;;;;5008820;28;20033;-60
2022/04/01 03:35:48;;;;;;;5.68;4.00;;;2.30;84.30;;;;;;5007167;28;20429;-60
2022/04/01 03:38:15;;;;;;;6.05;3.72;;;2.30;84.30;;;;;;5009186;28;20061;-59
2022/04/01 03:40:46;;;;;;;5.43;3.78;;;2.30;84.40;;;;;;5007942;28;20436;-60
2022/04/01 03:43:12;;;;;;;5.03;3.45;;;2.30;84.40;;;;;;5007857;28;20481;-59
2022/04/01 03:45:39;;;;;;;4.32;3.40;;;2.30;84.30;;;;;;5008318;28;20045;-59
2022/04/01 03:48:10;;;;;;;4.07;3.55;;;2.30;84.20;;;;;;5010935;28;20034;-63
2022/04/01 03:50:39;;;;;;;4.05;3.60;;;2.30;84.20;;;;;;5011742;28;20388;-64
2022/04/01 03:53:07;;;;;;;4.40;4.00;;;2.30;84.20;;;;;;5002535;28;20032;-63
2022/04/01 03:55:35;;;;;;;4.47;3.90;;;2.30;84.20;;;;;;5011354;28;20038;-63
2022/04/01 03:58:13;;;;;;;4.45;3.70;;;2.30;84.10;;;;;;5012529;28;20030;-59
2022/04/01 04:00:41;;;;;;;4.68;3.63;;;2.30;84.70;;;;;;5011146;28;20046;-60
2022/04/01 04:03:09;;;;;;;4.30;3.65;;;2.30;84.10;;;;;;5044081;28;20459;-60
2022/04/01 04:05:38;;;;;;;4.28;3.38;;;2.20;84.10;;;;;;5011376;28;20057;-63
2022/04/01 04:08:06;;;;;;;3.63;3.30;;;2.30;84.10;;;;;;5012504;28;20080;-63
2022/04/01 04:10:34;;;;;;;4.82;3.47;;;2.20;84.00;;;;;;5011204;28;20365;-63
2022/04/01 04:13:06;;;;;;;4.13;3.72;;;2.20;84.10;;;;;;5012686;28;20469;-60
2022/04/01 04:16:09;;;;;;;4.18;3.10;;;2.20;84.00;;;;;;5012009;28;20483;-57
2022/04/01 04:18:44;;;;;;;;;;;2.20;83.90;;;;;;5003200;28;20050;-58
2022/04/01 04:21:16;;;;;;;4.40;3.05;;;2.20;83.80;;;;;;5041241;28;20315;-59
2022/04/01 04:23:47;;;;;;;4.72;3.45;;;2.10;83.70;;;;;;5007043;28;20385;-63
2022/04/01 04:26:15;;;;;;;4.60;3.60;;;2.10;83.80;;;;;;5011747;28;20026;-63
2022/04/01 04:28:48;;;;;;;5.13;3.85;;;2.10;83.80;;;;;;5009819;28;20033;-63
2022/04/01 04:31:25;;;;;;;5.53;3.40;;;2.10;83.80;;;;;;5016454;28;20025;-63
2022/04/01 04:33:56;;;;;;;4.47;3.15;;;2.10;83.70;;;;;;5008989;28;20396;-63
2022/04/01 04:36:34;;;;;;;4.18;3.30;;;2.10;83.70;;;;;;5011650;28;20678;-63
2022/04/01 04:39:34;;;;;;;5.43;3.40;;;2.10;83.70;;;;;;5009951;28;20574;-63
2022/04/01 04:42:01;;;;;;;4.90;3.30;;;2.20;83.70;;;;;;5000770;28;20038;-59
2022/04/01 04:44:29;;;;;;;3.70;3.17;;;2.20;83.60;;;;;;5009517;28;20037;-63
2022/04/01 04:47:00;;;;;;;4.40;3.10;;;2.10;83.40;;;;;;5011238;28;20385;-59
2022/04/01 04:49:30;;;;;;;3.67;3.00;;;2.20;83.50;;;;;;5011010;28;20049;-59
2022/04/01 04:51:57;;;;;;;4.78;2.72;;;2.10;83.50;;;;;;5009620;28;20560;-59
2022/04/01 04:54:25;;;;;;;3.95;3.13;;;2.10;83.50;;;;;;5009870;28;20631;-58
2022/04/01 04:56:53;;;;;;;3.58;3.03;;;2.10;83.50;;;;;;5011568;28;20454;-64
2022/04/01 04:59:20;;;;;;;4.47;2.95;;;2.10;83.50;;;;;;5008326;28;20502;-62
2022/04/01 05:02:03;;;;;;;6.80;3.13;;;2.20;83.50;;;;;;5011286;28;20057;-63
2022/04/01 05:04:57;;;;;;;4.45;2.78;;;2.20;83.40;;;;;;5011234;28;20022;-63
2022/04/01 05:08:00;;;;;;;4.82;3.10;;;2.20;83.40;;;;;;4991742;28;20069;-62
2022/04/01 05:11:05;;;;;;;4.38;3.00;;;2.20;83.40;;;;;;4990331;28;20117;-63
2022/04/01 05:13:58;;;;;;;4.00;3.08;;;2.20;83.20;;;;;;5005687;28;20041;-63
2022/04/01 05:16:29;;;;;;;4.57;2.45;;;2.20;83.30;;;;;;5011560;28;20029;-61
2022/04/01 05:19:17;;;;;;;3.15;2.33;;;2.10;83.20;;;;;;5010341;28;20088;-63
2022/04/01 05:21:55;;;;;;;4.07;2.90;;;2.10;83.20;;;;;;5011342;28;20108;-59
2022/04/01 05:24:27;;;;;;;3.25;2.58;;;2.10;83.20;;;;;;5010261;28;20040;-63
2022/04/01 05:26:55;;;;;;;4.18;2.72;;;2.00;83.20;;;;;;5010956;28;20073;-63
2022/04/01 05:29:26;;;;;;;4.78;2.72;;;2.10;83.20;;;;;;5009880;28;20501;-63
2022/04/01 05:31:59;;;;;;;3.75;2.85;;;2.10;83.20;;;;;;5010903;28;20057;-63
2022/04/01 05:34:34;;;;;;;4.22;2.80;;;2.10;83.10;;;;;;5028761;28;20080;-62
2022/04/01 05:37:01;;;;;;;3.95;2.53;;;2.10;83.10;;;;;;5018509;28;20034;-64
2022/04/01 05:39:28;;;;;;;3.33;2.60;;;2.10;83.20;;;;;;5008282;28;20056;-64
2022/04/01 05:41:55;;;;;;;4.22;2.90;;;2.10;83.30;;;;;;5011017;28;20093;-60
2022/04/01 05:44:24;;;;;;;3.67;2.65;;;2.10;83.10;;;;;;5017184;28;20532;-60
2022/04/01 05:46:51;;;;;;;4.32;2.53;;;2.10;83.00;;;;;;5010675;28;20033;-59
2022/04/01 05:49:18;;;;;;;3.45;2.83;;;2.10;83.00;;;;;;5008353;28;20075;-59
2022/04/01 05:51:46;;;;;;;3.83;3.20;;;2.10;83.00;;;;;;5010957;28;20028;-59
2022/04/01 05:54:14;;;;;;;4.00;2.63;;;2.10;83.00;;;;;;5008847;28;20053;-60
2022/04/01 05:56:45;;;;;;;3.30;2.47;;;2.10;83.00;;;;;;5025498;28;20460;-59
2022/04/01 05:59:13;;;;;;;4.93;2.72;;;2.10;83.00;;;;;;5019456;28;20042;-60
2022/04/01 06:01:45;;;;;;;5.15;2.50;;;2.10;83.10;;;;;;5006983;28;20033;-60
2022/04/01 06:04:44;;;;;;;3.25;2.55;;;2.10;83.00;;;;;;5009543;28;20033;-60
2022/04/01 06:07:38;;;;;;;4.63;2.33;;;2.10;83.10;;;;;;5009755;28;20464;-60
2022/04/01 06:10:09;;;;;;;4.28;2.30;;;2.10;83.10;;;;;;5010521;28;20089;-63
2022/04/01 06:13:00;;;;;;;9.00;3.10;;;2.10;83.00;;;;;;5010151;28;20018;-60
2022/04/01 06:15:52;;;;;;;3.05;2.40;;;2.10;83.10;;;;;;5006811;28;20026;-60
2022/04/01 06:18:36;;;;;;;4.00;2.40;;;2.10;83.20;;;;;;5009027;28;20038;-61
2022/04/01 06:21:04;;;;;;;3.33;2.72;;;2.10;83.20;;;;;;5007782;28;20034;-60
2022/04/01 06:23:53;;;;;;;5.00;2.75;;;2.10;83.20;;;;;;5006108;28;20500;-60
2022/04/01 06:26:19;;;;;;;3.72;2.40;;;2.10;83.20;;;;;;4993819;28;20425;-62
2022/04/01 06:28:56;;;;;;;4.20;2.78;;;2.10;83.20;;;;;;5006675;28;20037;-62
2022/04/01 06:31:25;;;;;;;3.78;2.60;;;2.10;83.30;;;;;;5009402;28;20040;-62
2022/04/01 06:34:19;;;;;;;3.53;2.80;;;2.10;83.20;;;;;;5009762;28;20032;-63
2022/04/01 06:36:50;;;;;;;3.72;2.85;;;2.20;83.40;;;;;;5003100;28;20061;-60
2022/04/01 06:39:36;;;;;;;4.85;2.63;;;2.10;83.20;;;;;;5006355;28;20030;-60
2022/04/01 06:42:05;;;;;;;4.18;2.50;;;2.20;83.30;;;;;;5006772;28;20076;-60
2022/04/01 06:44:31;;;;;;;5.22;2.60;;;2.10;83.20;;;;;;5004785;28;20133;-59
2022/04/01 06:46:56;;;;;;;3.70;2.60;;;2.10;83.30;;;;;;5012530;28;20104;-60
2022/04/01 06:49:22;;;;;;;4.28;2.70;;;2.20;83.30;;;;;;5007729;28;20041;-60
2022/04/01 06:51:48;;;;;;;4.40;2.33;;;2.20;83.30;;;;;;5005833;28;20065;-63
2022/04/01 06:54:14;;;;;;;3.90;2.58;;;2.20;83.30;;;;;;5006994;28;20056;-62
2022/04/01 06:56:40;;;;;;;3.90;2.45;;;2.20;83.20;;;;;;5008389;28;20034;-62
2022/04/01 06:59:06;;;;;;;5.75;2.75;;;2.30;83.30;;;;;;5006042;28;20208;-63
2022/04/01 07:01:33;;;;;;;3.70;2.38;;;2.30;83.30;;;;;;5009750;28;20038;-63
2022/04/01 07:03:59;;;;;;;4.10;2.55;;;2.30;83.20;;;;;;5007884;28;20037;-63
2022/04/01 07:06:25;;;;;;;4.63;2.60;;;2.40;83.30;;;;;;5007728;28;20030;-59
2022/04/01 07:08:51;;;;;;;4.60;2.67;;;2.40;83.20;;;;;;5007819;28;20516;-64
2022/04/01 07:11:19;;;;;;;3.15;2.30;;;2.40;83.10;;;;;;5007779;28;20030;-63
2022/04/01 07:13:45;;;;;;;4.20;2.78;;;2.40;83.10;;;;;;5009533;28;20033;-62
2022/04/01 07:16:12;;;;;;;5.07;2.88;;;2.40;83.80;;;;;;5009303;28;20029;-63
2022/04/01 07:18:39;;;;;;;3.75;2.90;;;2.40;83.10;;;;;;5008645;28;20037;-62
2022/04/01 07:21:05;;;;;;;5.05;2.45;;;2.40;83.00;;;;;;5008624;28;20037;-63
2022/04/01 07:23:32;;;;;;;4.07;2.80;;;2.30;83.10;;;;;;5007112;28;20026;-60
2022/04/01 07:25:58;;;;;;;4.47;2.60;;;2.40;83.20;;;;;;5009267;28;20026;-60
2022/04/01 07:28:23;;;;;;;3.55;2.35;;;2.40;83.20;;;;;;5006197;28;20030;-62
2022/04/01 07:30:50;;;;;;;3.97;2.20;;;2.40;83.00;;;;;;5008451;28;20030;-62
2022/04/01 07:33:17;;;;;;;5.65;2.70;;;2.50;83.00;;;;;;5004666;28;20521;-63
2022/04/01 07:35:45;;;;;;;2.78;2.22;;;2.40;83.00;;;;;;5022466;28;20061;-63
2022/04/01 07:38:11;;;;;;;4.05;2.50;;;2.50;82.90;;;;;;4990142;28;20023;-62
2022/04/01 07:40:36;;;;;;;4.40;2.80;;;2.40;82.80;;;;;;4998390;28;20374;-62
2022/04/01 07:43:02;;;;;;;4.25;2.60;;;2.40;82.90;;;;;;4994559;28;20042;-62
2022/04/01 07:45:29;;;;;;;6.63;2.20;;;2.40;83.10;;;;;;5005819;28;20131;-62
2022/04/01 07:47:55;;;;;;;3.10;2.20;;;2.50;83.10;;;;;;5002428;28;20041;-63
2022/04/01 07:50:22;;;;;;;4.28;2.25;;;2.60;83.00;;;;;;5002355;28;20041;-60
2022/04/01 07:52:48;;;;;;;4.07;2.25;;;2.70;82.90;;;;;;5008099;28;20022;-60
2022/04/01 07:55:16;;;;;;;5.25;2.40;;;2.70;82.70;;;;;;5006689;28;20029;-59
2022/04/01 07:57:43;;;;;;;3.70;2.50;;;2.80;82.60;;;;;;5005302;28;20030;-63
2022/04/01 08:00:10;;;;;;;3.50;1.95;;;2.80;82.30;;;;;;5003547;28;20069;-63
2022/04/01 08:02:36;;;;;;;2.53;1.70;;;2.90;82.10;;;;;;5039702;28;20405;-62
2022/04/01 08:05:06;;;;;;;3.22;1.92;;;2.80;81.70;;;;;;5006896;28;20046;-63
2022/04/01 08:07:32;;;;;;;2.58;1.75;;;2.90;81.60;;;;;;5003131;28;21130;-63
2022/04/01 08:09:58;;;;;;;3.38;2.05;;;2.90;81.50;;;;;;5007176;28;20104;-63
2022/04/01 08:12:24;;;;;;;5.13;2.20;;;2.90;81.40;;;;;;5009159;28;20477;-63
2022/04/01 08:14:49;;;;;;;2.70;1.75;;;3.00;81.20;;;;;;5010646;28;20033;-63
2022/04/01 08:17:16;;;;;;;3.75;1.42;;;3.00;80.90;;;;;;5007948;28;20036;-63
2022/04/01 08:19:43;;;;;;;2.53;1.40;;;3.00;80.60;;;;;;5037060;28;20048;-60
2022/04/01 08:22:09;;;;;;;2.22;1.60;;;3.00;80.40;;;;;;5006394;28;20045;-61
2022/04/01 08:24:35;;;;;;;3.75;1.50;;;3.00;80.30;;;;;;5002550;28;20389;-60
2022/04/01 08:27:01;;;;;;;2.13;1.30;;;3.00;80.20;;;;;;5005431;28;20519;-60
2022/04/01 08:29:29;;;;;;;1.70;1.30;;;3.10;80.10;;;;;;5005130;28;20034;-63
2022/04/01 08:31:56;;;;;;;1.85;1.25;;;3.10;80.00;;;;;;5007453;28;20034;-63
2022/04/01 08:34:22;;;;;;;2.25;1.20;;;3.20;79.90;;;;;;5007591;28;20040;-64
2022/04/01 08:36:48;;;;;;;1.75;1.20;;;3.20;79.60;;;;;;5011489;28;20088;-63
2022/04/01 08:39:14;;;;;;;2.10;1.40;;;3.20;79.60;;;;;;5009222;28;20033;-63
2022/04/01 08:41:40;;;;;;;2.45;1.40;;;3.30;79.50;;;;;;5010981;28;20045;-60
2022/04/01 08:44:06;;;;;;;1.45;1.15;;;3.40;79.40;;;;;;5009148;28;20560;-63
2022/04/01 08:46:32;;;;;;;1.30;1.20;;;3.40;79.00;;;;;;5010119;28;20044;-61
2022/04/01 08:48:58;;;;;;;1.20;1.10;;;3.50;79.10;;;;;;5009854;28;20026;-63
2022/04/01 08:51:23;;;;;;;3.80;1.35;;;3.50;79.40;;;;;;5011745;28;20040;-63
2022/04/01 08:53:49;;;;;;;1.38;1.08;;;3.60;78.60;;;;;;5010130;28;20096;-63
2022/04/01 08:56:19;;;;;;;3.70;1.30;;;3.60;78.20;;;;;;5008179;28;20026;-62
2022/04/01 08:58:45;;;;;;;3.65;1.40;;;3.60;77.90;;;;;;5009664;28;20378;-62
2022/04/01 09:01:12;;;;;;;2.28;1.15;;;3.60;77.70;;;;;;5010815;28;20168;-62
2022/04/01 09:03:38;;;;;;;1.98;1.48;;;3.60;77.40;;;;;;5008024;28;20026;-62
2022/04/01 09:06:06;;;;;;;3.00;1.60;;;3.70;77.50;;;;;;5008079;28;20029;-62
2022/04/01 09:08:42;;;;;;;2.60;1.65;;;3.70;77.40;;;;;;5007862;28;20037;-62
2022/04/01 09:11:16;;;;;;;2.55;1.88;;;3.80;77.10;;;;;;5006978;28;20051;-62
2022/04/01 09:13:48;;;;;;;2.50;1.60;;;3.80;77.00;;;;;;5006906;28;20044;-62
2022/04/01 09:16:38;;;;;;;2.05;1.48;;;3.80;77.10;;;;;;5007318;28;20054;-62
2022/04/01 09:19:06;;;;;;;4.05;1.50;;;3.90;77.20;;;;;;5005777;28;20489;-62
2022/04/01 09:21:33;;;;;;;3.03;1.70;;;3.90;76.70;;;;;;5009898;28;20485;-62
2022/04/01 09:24:00;;;;;;;2.63;1.70;;;3.90;76.70;;;;;;5008585;28;20029;-59
2022/04/01 09:26:32;;;;;;;4.00;1.80;;;4.00;77.10;;;;;;5009439;28;20516;-59
2022/04/01 09:28:59;;;;;;;3.05;1.95;;;4.10;77.10;;;;;;5009175;28;20053;-60
2022/04/01 09:31:25;;;;;;;3.42;2.20;;;4.30;77.30;;;;;;5008424;28;20034;-62
2022/04/01 09:33:52;;;;;;;2.70;1.65;;;4.30;77.10;;;;;;5011721;28;20049;-62
2022/04/01 09:36:22;;;;;;;6.28;2.20;;;4.40;77.00;;;;;;5001833;28;20452;-60
2022/04/01 09:38:54;;;;;;;3.20;2.28;;;4.40;76.70;;;;;;5007564;28;20036;-59
2022/04/01 09:41:20;;;;;;;3.88;2.10;;;4.40;76.90;;;;;;5038394;28;20044;-59
2022/04/01 09:43:46;;;;;;;4.40;2.25;;;4.50;76.80;;;;;;5014249;28;20033;-60
2022/04/01 09:46:26;;;;;;;2.55;2.13;;;4.70;76.90;;;;;;5009129;28;20125;-59
2022/04/01 09:48:56;;;;;;;2.25;1.90;;;4.80;76.60;;;;;;5008473;28;20030;-62
2022/04/01 09:51:22;;;;;;;3.13;2.20;;;4.80;76.10;;;;;;5009052;28;20036;-62
2022/04/01 09:53:54;;;;;;;3.58;2.60;;;4.80;75.80;;;;;;5009762;28;20021;-59
2022/04/01 09:56:44;;;;;;;3.55;2.50;;;4.80;75.70;;;;;;5009785;28;20496;-60
2022/04/01 09:59:11;;;;;;;3.08;2.28;;;4.80;75.70;;;;;;5011350;28;20065;-59
2022/04/01 10:01:39;;;;;;;3.58;2.60;;;4.80;75.60;;;;;;5031062;28;20038;-59
2022/04/01 10:04:05;;;;;;;3.67;2.60;;;4.80;75.70;;;;;;5008836;28;20045;-59
2022/04/01 10:06:32;;;;;;;3.95;2.88;;;4.80;75.50;;;;;;5009135;28;20034;-60
2022/04/01 10:09:01;;;;;;;4.03;2.90;;;4.70;75.20;;;;;;5007859;28;20029;-60
2022/04/01 10:11:28;;;;;;;3.55;2.72;;;4.70;75.50;;;;;;4997238;28;20033;-60
2022/04/01 10:13:54;;;;;;;3.85;2.72;;;4.70;76.10;;;;;;5005521;28;20080;-60
2022/04/01 10:16:23;;;;;;;5.43;3.15;;;4.80;76.10;;;;;;5005550;28;20044;-60
2022/04/01 10:18:51;;;;;;;7.00;3.53;;;4.80;76.10;;;;;;5006998;28;20053;-60
2022/04/01 10:21:20;;;;;;;3.70;3.10;;;4.90;75.90;;;;;;5008176;28;20094;-60
2022/04/01 10:24:18;;;;;;;3.97;3.28;;;5.00;75.80;;;;;;5035744;28;20388;-60
2022/04/01 10:27:08;;;;;;;3.30;2.97;;;5.10;75.00;;;;;;5005983;28;20073;-62
2022/04/01 10:29:35;;;;;;;4.70;3.13;;;5.00;74.90;;;;;;5033247;28;20036;-62
2022/04/01 10:32:28;;;;;;;5.22;3.70;;;4.90;74.90;;;;;;5011320;28;20385;-62
2022/04/01 10:34:57;;;;;;;4.85;3.50;;;4.90;75.10;;;;;;5037513;28;20038;-62
2022/04/01 10:37:25;;;;;;;5.90;3.78;;;4.90;75.30;;;;;;5007786;28;20026;-61
2022/04/01 10:39:55;;;;;;;4.47;3.55;;;4.90;75.00;;;;;;5007619;28;20444;-61
2022/04/01 10:42:44;;;;;;;5.35;3.78;;;4.90;75.10;;;;;;5009836;28;20028;-61
2022/04/01 10:45:13;;;;;;;4.43;3.30;;;4.90;75.00;;;;;;5006526;28;20045;-62
2022/04/01 10:51:39;;;;;;;4.25;3.22;;;4.70;74.90;;;;;;5000815;28;20088;-61
2022/04/01 10:54:14;;;;;;;4.73;3.33;;;4.70;75.00;;;;;;5008644;28;20033;-60
2022/04/01 10:56:54;;;;;;;7.43;3.58;;;4.60;75.20;;;;;;5002740;28;20049;-60
2022/04/01 10:59:24;;;;;;;5.20;3.75;;;4.70;75.30;;;;;;5006207;28;20121;-61
2022/04/01 11:01:52;;;;;;;9.85;3.88;;;4.70;75.20;;;;;;5006401;28;20164;-61
2022/04/01 11:04:18;;;;;;;5.53;3.40;;;4.90;75.20;;;;;;5008997;28;20034;-60
2022/04/01 11:07:01;;;;;;;6.72;3.75;;;4.90;74.90;;;;;;5009231;28;20033;-60
2022/04/01 11:09:50;;;;;;;6.90;3.50;;;5.00;74.60;;;;;;5007334;28;20112;-60
2022/04/01 11:12:25;;;;;;;5.43;3.78;;;5.00;74.50;;;;;;5007316;28;20033;-60
2022/04/01 11:14:56;;;;;;;3.97;3.30;;;5.00;73.70;;;;;;5008011;28;20022;-60
2022/04/01 11:17:24;;;;;;;6.70;4.20;;;4.90;73.70;;;;;;5009425;28;20029;-62
2022/04/01 11:20:08;;;;;;;4.43;3.38;;;5.00;74.10;;;;;;5008126;28;20459;-61
2022/04/01 11:22:38;;;;;;;4.57;3.22;;;5.00;74.10;;;;;;5008199;28;20022;-62
2022/04/01 11:25:05;;;;;;;5.40;3.60;;;5.00;73.90;;;;;;5008025;28;20034;-62
2022/04/01 11:27:31;;;;;;;5.90;4.00;;;5.00;74.00;;;;;;5008373;28;20109;-62
2022/04/01 11:30:13;;;;;;;6.20;3.92;;;5.00;74.00;;;;;;5007121;28;20108;-62
2022/04/01 11:32:41;;;;;;;5.38;3.80;;;5.00;74.10;;;;;;5005454;28;20560;-62
2022/04/01 11:35:10;;;;;;;6.07;4.22;;;5.00;74.30;;;;;;5007974;28;20034;-62
2022/04/01 11:37:46;;;;;;;5.07;4.22;;;4.90;74.20;;;;;;5008409;28;20386;-62
2022/04/01 11:40:17;;;;;;;7.75;5.38;;;4.90;74.40;;;;;;5006928;28;20026;-62
2022/04/01 11:43:03;;;;;;;5.70;4.20;;;4.80;74.40;;;;;;5008594;28;20026;-62
2022/04/01 11:45:35;;;;;;;6.97;4.82;;;4.80;74.40;;;;;;5001433;28;20049;-62
2022/04/01 11:48:22;;;;;;;6.13;4.40;;;4.70;75.00;;;;;;5007058;28;20029;-62
2022/04/01 11:50:54;;;;;;;6.88;4.70;;;4.70;74.50;;;;;;4999340;28;20038;-62
2022/04/01 11:53:24;;;;;;;5.65;4.53;;;4.70;74.70;;;;;;5005836;28;20022;-62
2022/04/01 11:55:50;;;;;;;6.80;4.40;;;4.80;74.70;;;;;;5001380;28;20026;-59
2022/04/01 11:58:16;;;;;;;5.13;4.25;;;4.90;74.70;;;;;;5011516;28;20554;-60
2022/04/01 12:00:43;;;;;;;7.85;5.20;;;4.90;74.40;;;;;;5002021;28;20050;-60
2022/04/01 12:03:09;;;;;;;5.82;4.72;;;5.00;74.50;;;;;;5001591;28;20049;-59
2022/04/01 12:05:36;;;;;;;6.18;4.57;;;5.10;74.50;;;;;;5005354;28;20036;-59
2022/04/01 12:10:57;;;;;;;7.53;4.53;;;5.40;73.90;;;;;;5009617;28;20197;-60
2022/04/01 12:13:25;;;;;;;8.20;4.82;;;5.50;73.40;;;;;;5011709;28;20423;-63
2022/04/01 12:15:54;;;;;;;6.38;4.90;;;5.50;73.20;;;;;;5043842;28;20026;-63
2022/04/01 12:18:26;;;;;;;6.65;5.00;;;5.40;73.50;;;;;;5011017;28;20065;-59
2022/04/01 12:20:54;;;;;;;6.50;4.33;;;5.40;73.30;;;;;;4992463;28;20030;-59
2022/04/01 12:23:23;;;;;;;6.82;4.65;;;5.40;73.50;;;;;;5008588;28;20033;-59
2022/04/01 12:25:50;;;;;;;7.90;4.97;;;5.40;73.20;;;;;;5009398;28;20053;-59
2022/04/01 12:28:21;;;;;;;6.15;4.60;;;5.40;73.20;;;;;;5013877;28;20485;-59
2022/04/01 12:30:51;;;;;;;6.38;4.70;;;5.50;72.80;;;;;;5009672;28;20042;-59
2022/04/01 12:33:24;;;;;;;8.85;4.90;;;5.40;72.50;;;;;;5008439;28;20029;-59
2022/04/01 12:36:00;;;;;;;6.25;4.95;;;5.40;72.30;;;;;;5012987;28;20036;-59
2022/04/01 12:38:27;;;;;;;9.13;4.72;;;5.40;72.50;;;;;;5010551;28;20087;-59
2022/04/01 12:40:59;;;;;;;5.35;4.70;;;5.40;72.50;;;;;;5009452;28;20044;-63
2022/04/01 12:43:30;;;;;;;6.13;4.95;;;5.40;72.60;;;;;;5003255;28;20366;-60
2022/04/01 12:46:07;;;;;;;5.75;4.75;;;5.40;72.40;;;;;;5006961;28;20041;-64
2022/04/01 12:48:46;;;;;;;6.43;4.75;;;5.40;72.30;;;;;;5006758;28;20396;-64
2022/04/01 12:51:17;;;;;;;6.90;4.95;;;5.30;71.80;;;;;;5004547;28;20465;-60
2022/04/01 12:54:08;;;;;;;6.20;4.80;;;5.30;72.00;;;;;;4998061;28;20038;-63
2022/04/01 12:56:41;;;;;;;8.38;4.95;;;5.30;71.50;;;;;;5002955;28;20148;-63
2022/04/01 12:59:13;;;;;;;5.57;4.47;;;5.30;71.60;;;;;;5009280;28;20029;-63
2022/04/01 13:01:41;;;;;;;6.88;5.25;;;5.40;71.70;;;;;;5005952;28;20038;-63
2022/04/01 13:04:17;;;;;;;7.45;4.70;;;5.50;71.20;;;;;;5008806;28;20033;-64
2022/04/01 13:07:03;;;;;;;6.88;4.82;;;5.60;71.10;;;;;;5008608;28;20040;-63
2022/04/01 13:09:28;;;;;;;8.50;4.60;;;5.70;71.40;;;;;;5004886;28;20050;-63
2022/04/01 13:11:58;;;;;;;8.63;4.90;;;6.00;70.80;;;;;;5008123;28;20057;-63
2022/04/01 13:14:32;;;;;;;4.90;4.18;;;6.20;70.50;;;;;;5008123;28;20149;-64
2022/04/01 13:16:58;;;;;;;5.95;4.35;;;6.30;70.30;;;;;;5008349;28;20123;-64
2022/04/01 13:19:37;;;;;;;6.43;4.00;;;6.40;70.10;;;;;;5006521;28;20021;-63
2022/04/01 13:22:06;;;;;;;4.93;3.97;;;6.40;69.90;;;;;;5008930;28;20037;-63
2022/04/01 13:24:37;;;;;;;4.13;3.60;;;6.50;69.60;;;;;;5008251;28;20037;-63